Time;durP1;ratioP1;P1;durP2;ratioP2;P2;SDS_P1;SDS_P2;PMS_P1;PMS_P2;Temp;Humidity;BMP_temperature;BMP_pressure;BME280_temperature;BME280_humidity;BME280_pressure;Samples;Min_cycle;Max_cycle;Signal;HPM_P1;HPM_P2
2021/08/13 00:02:07;;;;;;;;;;;;;;;16.42;67.30;98826.21;1742482;80;20255;-88
2021/08/13 00:04:35;;;;;;;;;;;;;;;16.45;67.39;98825.96;1747036;81;25248;-88
2021/08/13 00:07:01;;;;;;;;;;;;;;;16.47;67.47;98826.67;1746533;81;21951;-89
2021/08/13 00:09:27;;;;;;;;;;;;;;;16.45;67.53;98819.36;1745358;80;26720;-88
2021/08/13 00:11:58;;;;;;;;;;;;;;;16.36;67.58;98818.02;1729283;82;20248;-87
2021/08/13 00:14:27;;;;;;;;;;;;;;;16.25;67.65;98817.63;1745451;80;20169;-87
2021/08/13 00:16:53;;;;;;;;;;;;;;;16.24;67.74;98826.03;1709150;83;25241;-88
2021/08/13 00:19:29;;;;;;;;;;;;;;;16.33;67.83;98827.86;1684626;84;20254;-88
2021/08/13 00:21:55;;;;;;;;;;;;;;;16.45;67.93;98829.09;1687664;84;26037;-88
2021/08/13 00:24:23;;;;;;;;;;;;;;;16.54;67.97;98822.50;1687199;84;24386;-88
2021/08/13 00:26:49;;;;;;;;;;;;;;;16.64;68.03;98823.88;1689826;84;20329;-88
2021/08/13 00:29:17;;;;;;;;;;;;;;;16.75;68.06;98825.59;1715728;83;25852;-85
2021/08/13 00:31:43;;;;;;;;;;;;;;;16.81;68.06;98824.54;1714207;82;22017;-84
2021/08/13 00:34:09;;;;;;;;;;;;;;;16.82;68.05;98821.41;1700353;83;20971;-84
2021/08/13 00:36:35;;;;;;;;;;;;;;;16.80;68.04;98822.86;1675612;84;20257;-85
2021/08/13 00:39:02;;;;;;;;;;;;;;;16.83;68.05;98824.41;1700586;81;20809;-85
2021/08/13 00:41:30;;;;;;;;;;;;;;;16.86;68.02;98820.16;1762171;80;25853;-84
2021/08/13 00:43:56;;;;;;;;;;;;;;;16.90;68.04;98816.29;1761816;79;22063;-84
2021/08/13 00:46:21;;;;;;;;;;;;;;;16.93;68.00;98816.84;1767690;80;21004;-84
2021/08/13 00:48:47;;;;;;;;;;;;;;;16.95;68.03;98817.55;1766761;80;20275;-85
2021/08/13 00:51:14;;;;;;;;;;;;;;;16.95;68.01;98818.88;1767164;80;20248;-85
2021/08/13 00:53:40;;;;;;;;;;;;;;;16.93;67.97;98820.80;1763726;80;24930;-85
2021/08/13 00:56:06;;;;;;;;;;;;;;;16.87;67.98;98817.87;1763444;81;20232;-85
2021/08/13 00:58:35;;;;;;;;;;;;;;;16.73;67.99;98813.83;1754775;81;25953;-85
2021/08/13 01:01:01;;;;;;;;;;;;;;;16.67;67.99;98815.69;1756516;79;24494;-84
2021/08/13 01:03:28;;;;;;;;;;;;;;;16.73;68.02;98821.27;1742315;82;20268;-85
2021/08/13 01:05:54;;;;;;;;;;;;;;;16.76;68.06;98816.19;1732199;81;25082;-84
2021/08/13 01:08:20;;;;;;;;;;;;;;;16.77;68.06;98815.22;1764130;80;21929;-87
2021/08/13 01:10:48;;;;;;;;;;;;;;;16.72;68.10;98814.31;1764414;80;26121;-87
2021/08/13 01:13:15;;;;;;;;;;;;;;;16.73;68.16;98812.02;1757230;81;25971;-87
2021/08/13 01:15:46;;;;;;;;;;;;;;;16.68;68.20;98812.92;1762486;79;20280;-88
2021/08/13 01:18:14;;;;;;;;;;;;;;;16.62;68.23;98816.11;1745604;81;24946;-87
2021/08/13 01:20:48;;;;;;;;;;;;;;;16.60;68.31;98811.91;1737673;82;22088;-87
2021/08/13 01:23:28;;;;;;;;;;;;;;;16.48;68.34;98822.20;1734965;82;26047;-88
2021/08/13 01:25:58;;;;;;;;;;;;;;;16.36;68.37;98829.42;1736296;81;25050;-88
2021/08/13 01:28:38;;;;;;;;;;;;;;;16.25;68.44;98824.23;1719233;82;20243;-87
2021/08/13 01:31:06;;;;;;;;;;;;;;;16.15;68.53;98820.69;1735593;82;25090;-87
2021/08/13 01:33:37;;;;;;;;;;;;;;;16.08;68.67;98828.33;1741500;82;22721;-87
2021/08/13 01:36:03;;;;;;;;;;;;;;;16.13;68.78;98827.92;1741661;82;25980;-87
2021/08/13 01:38:30;;;;;;;;;;;;;;;16.04;68.87;98822.94;1734807;82;24517;-88
2021/08/13 01:40:58;;;;;;;;;;;;;;;15.92;68.94;98821.85;1730441;82;20330;-87
2021/08/13 01:43:25;;;;;;;;;;;;;;;15.84;69.03;98823.33;1735487;81;25761;-88
2021/08/13 01:45:54;;;;;;;;;;;;;;;15.96;69.19;98820.61;1741812;81;21959;-87
2021/08/13 01:48:27;;;;;;;;;;;;;;;15.96;69.29;98812.69;1713760;82;26081;-87
2021/08/13 01:50:56;;;;;;;;;;;;;;;15.94;69.37;98814.62;1722904;82;24501;-87
2021/08/13 01:53:23;;;;;;;;;;;;;;;16.05;69.48;98819.81;1693708;83;20219;-87
2021/08/13 01:55:50;;;;;;;;;;;;;;;16.11;69.58;98816.65;1749299;81;24939;-87
2021/08/13 01:58:17;;;;;;;;;;;;;;;16.21;69.64;98819.68;1726647;82;22075;-87
2021/08/13 02:00:44;;;;;;;;;;;;;;;16.27;69.67;98815.19;1724190;82;26050;-87
2021/08/13 02:03:10;;;;;;;;;;;;;;;16.37;69.67;98817.02;1729815;81;24443;-87
2021/08/13 02:05:38;;;;;;;;;;;;;;;16.48;69.69;98816.43;1750007;81;20454;-87
2021/08/13 02:08:05;;;;;;;;;;;;;;;16.47;69.72;98820.55;1731982;82;25074;-87
2021/08/13 02:10:32;;;;;;;;;;;;;;;16.48;69.70;98823.04;1737981;81;21969;-87
2021/08/13 02:13:00;;;;;;;;;;;;;;;16.40;69.68;98819.41;1742022;81;20991;-88
2021/08/13 02:15:26;;;;;;;;;;;;;;;16.35;69.68;98821.62;1747078;81;20231;-87
2021/08/13 02:18:10;;;;;;;;;;;;;;;16.25;69.67;98811.03;1714702;81;20210;-87
2021/08/13 02:20:37;;;;;;;;;;;;;;;16.14;69.66;98815.08;1743032;81;25180;-87
2021/08/13 02:23:08;;;;;;;;;;;;;;;16.02;69.72;98809.05;1746779;81;21531;-87
2021/08/13 02:25:32;;;;;;;;;;;;;;;15.89;69.77;98804.45;1740268;81;26039;-87
2021/08/13 02:27:57;;;;;;;;;;;;;;;15.78;69.83;98800.58;1744400;81;20290;-86
2021/08/13 02:30:23;;;;;;;;;;;;;;;15.66;69.88;98797.66;1742404;81;20251;-87
2021/08/13 02:32:49;;;;;;;;;;;;;;;15.59;69.97;98799.16;1747834;81;20263;-84
2021/08/13 02:35:18;;;;;;;;;;;;;;;15.71;70.08;98806.86;1739556;81;22042;-84
2021/08/13 02:37:47;;;;;;;;;;;;;;;15.65;70.17;98809.20;1739405;81;25924;-84
2021/08/13 02:40:17;;;;;;;;;;;;;;;15.57;70.25;98801.08;1742737;81;24494;-84
2021/08/13 02:42:45;;;;;;;;;;;;;;;15.68;70.34;98807.13;1746385;81;20204;-84
2021/08/13 02:45:14;;;;;;;;;;;;;;;15.74;70.44;98805.30;1746665;81;25748;-83
2021/08/13 02:47:54;;;;;;;;;;;;;;;15.65;70.48;98799.48;1745144;81;22758;-84
2021/08/13 02:50:26;;;;;;;;;;;;;;;15.61;70.55;98794.57;1742744;80;25983;-84
2021/08/13 02:52:54;;;;;;;;;;;;;;;15.57;70.63;98795.80;1743174;81;24394;-84
2021/08/13 02:55:27;;;;;;;;;;;;;;;15.69;70.73;98804.01;1714851;81;20246;-84
2021/08/13 02:57:55;;;;;;;;;;;;;;;15.74;70.78;98806.61;1746375;81;25186;-85
2021/08/13 03:00:21;;;;;;;;;;;;;;;15.80;70.84;98810.53;1747534;81;22836;-84
2021/08/13 03:02:50;;;;;;;;;;;;;;;15.80;70.88;98809.22;1719511;82;26042;-84
2021/08/13 03:05:17;;;;;;;;;;;;;;;15.80;70.92;98815.33;1720919;82;24499;-84
2021/08/13 03:07:43;;;;;;;;;;;;;;;15.77;70.92;98812.94;1725059;82;20234;-84
2021/08/13 03:10:09;;;;;;;;;;;;;;;15.75;70.96;98820.64;1719498;82;24930;-85
2021/08/13 03:12:37;;;;;;;;;;;;;;;15.71;70.99;98818.73;1724483;82;22016;-86
2021/08/13 03:15:03;;;;;;;;;;;;;;;15.52;70.99;98813.83;1723619;82;25443;-86
2021/08/13 03:17:30;;;;;;;;;;;;;;;15.36;71.04;98808.97;1707420;83;24681;-85
2021/08/13 03:20:00;;;;;;;;;;;;;;;15.25;71.09;98801.95;1724569;82;20214;-86
2021/08/13 03:22:27;;;;;;;;;;;;;;;15.17;71.17;98807.00;1725389;82;25078;-86
2021/08/13 03:24:53;;;;;;;;;;;;;;;15.07;71.23;98799.50;1724100;82;22815;-86
2021/08/13 03:27:25;;;;;;;;;;;;;;;14.98;71.30;98796.31;1723541;82;26725;-86
2021/08/13 03:29:52;;;;;;;;;;;;;;;14.94;71.40;98793.11;1728913;82;24789;-84
2021/08/13 03:32:18;;;;;;;;;;;;;;;14.91;71.51;98799.09;1721277;82;20585;-85
2021/08/13 03:34:45;;;;;;;;;;;;;;;14.89;71.61;98801.03;1725621;82;24930;-84
2021/08/13 03:37:11;;;;;;;;;;;;;;;15.05;71.75;98804.89;1722663;82;22067;-84
2021/08/13 03:39:37;;;;;;;;;;;;;;;15.08;71.86;98790.16;1712908;82;21101;-85
2021/08/13 03:42:05;;;;;;;;;;;;;;;15.15;71.97;98791.81;1771060;81;20272;-85
2021/08/13 03:44:31;;;;;;;;;;;;;;;15.28;72.07;98791.13;1760066;79;20336;-85
2021/08/13 03:47:00;;;;;;;;;;;;;;;15.46;72.17;98787.45;1741786;82;25032;-84
2021/08/13 03:49:26;;;;;;;;;;;;;;;15.60;72.26;98783.18;1727834;81;22041;-85
2021/08/13 03:51:56;;;;;;;;;;;;;;;15.62;72.28;98793.61;1730794;82;27175;-85
2021/08/13 03:54:30;;;;;;;;;;;;;;;15.61;72.31;98786.17;1737523;82;25136;-85
2021/08/13 03:56:56;;;;;;;;;;;;;;;15.73;72.37;98789.10;1759933;81;20280;-85
2021/08/13 03:59:21;;;;;;;;;;;;;;;15.84;72.42;98786.86;1763780;81;24951;-85
2021/08/13 04:01:47;;;;;;;;;;;;;;;15.81;72.41;98780.55;1738051;81;20223;-86
2021/08/13 04:04:13;;;;;;;;;;;;;;;15.78;72.43;98785.58;1762349;80;21057;-85
2021/08/13 04:06:39;;;;;;;;;;;;;;;15.74;72.46;98778.91;1743685;82;24529;-86
2021/08/13 04:09:05;;;;;;;;;;;;;;;15.67;72.45;98785.66;1762688;81;20767;-86
2021/08/13 04:11:35;;;;;;;;;;;;;;;15.62;72.51;98786.53;1730368;81;25126;-85
2021/08/13 04:14:04;;;;;;;;;;;;;;;15.64;72.58;98787.73;1711097;83;22821;-86
2021/08/13 04:16:30;;;;;;;;;;;;;;;15.61;72.67;98779.58;1751270;81;25975;-85
2021/08/13 04:18:56;;;;;;;;;;;;;;;15.62;72.75;98785.70;1763806;81;20208;-85
2021/08/13 04:21:22;;;;;;;;;;;;;;;15.76;72.86;98778.78;1734056;81;20306;-85
2021/08/13 04:23:52;;;;;;;;;;;;;;;15.91;72.97;98782.73;1747312;81;38391;-85
2021/08/13 04:26:20;;;;;;;;;;;;;;;15.92;73.03;98777.81;1715497;83;22772;-86
2021/08/13 04:28:46;;;;;;;;;;;;;;;15.86;73.09;98777.02;1726145;82;25916;-85
2021/08/13 04:31:12;;;;;;;;;;;;;;;15.76;73.14;98769.55;1762745;81;20240;-85
2021/08/13 04:33:38;;;;;;;;;;;;;;;15.78;73.18;98781.63;1741308;81;20806;-85
2021/08/13 04:36:04;;;;;;;;;;;;;;;15.92;73.31;98781.77;1726440;82;20752;-85
2021/08/13 04:38:30;;;;;;;;;;;;;;;15.93;73.38;98780.78;1767820;80;21921;-85
2021/08/13 04:41:01;;;;;;;;;;;;;;;15.90;73.45;98777.10;1756106;81;20922;-86
2021/08/13 04:43:27;;;;;;;;;;;;;;;15.93;73.54;98787.38;1737154;82;25256;-86
2021/08/13 04:45:54;;;;;;;;;;;;;;;16.02;73.65;98785.77;1734808;82;20192;-86
2021/08/13 04:48:20;;;;;;;;;;;;;;;16.05;73.71;98786.33;1750010;81;25090;-86
2021/08/13 04:50:47;;;;;;;;;;;;;;;16.06;73.81;98790.65;1756299;81;20759;-86
2021/08/13 04:53:15;;;;;;;;;;;;;;;16.13;73.88;98799.72;1728529;81;25909;-86
2021/08/13 04:55:41;;;;;;;;;;;;;;;16.38;74.02;98793.12;1749039;82;24478;-86
2021/08/13 04:58:07;;;;;;;;;;;;;;;16.54;74.10;98797.41;1749300;82;20770;-86
2021/08/13 05:00:35;;;;;;;;;;;;;;;16.69;74.19;98799.22;1746803;82;20667;-86
2021/08/13 05:03:04;;;;;;;;;;;;;;;16.85;74.26;98798.20;1746115;82;21994;-86
2021/08/13 05:05:36;;;;;;;;;;;;;;;16.99;74.32;98799.10;1749007;82;26133;-86
2021/08/13 05:08:04;;;;;;;;;;;;;;;17.11;74.34;98799.81;1747587;82;24598;-86
2021/08/13 05:10:29;;;;;;;;;;;;;;;17.19;74.30;98799.93;1748693;82;20149;-86
2021/08/13 05:12:56;;;;;;;;;;;;;;;17.31;74.31;98798.81;1748655;82;20252;-86
2021/08/13 05:15:22;;;;;;;;;;;;;;;17.37;74.34;98801.39;1749027;81;20377;-86
2021/08/13 05:17:50;;;;;;;;;;;;;;;17.46;74.32;98807.14;1748339;82;25989;-85
2021/08/13 05:20:19;;;;;;;;;;;;;;;17.44;74.28;98805.98;1746886;82;24468;-85
2021/08/13 05:22:53;;;;;;;;;;;;;;;17.37;74.26;98806.68;1748457;81;20254;-86
2021/08/13 05:25:19;;;;;;;;;;;;;;;17.32;74.28;98802.30;1748821;82;24939;-86
2021/08/13 05:27:46;;;;;;;;;;;;;;;17.22;74.31;98804.13;1748499;82;22078;-86
2021/08/13 05:30:13;;;;;;;;;;;;;;;17.09;74.33;98806.55;1749510;82;26952;-86
2021/08/13 05:32:50;;;;;;;;;;;;;;;16.98;74.34;98810.65;1744162;81;25340;-86
2021/08/13 05:35:19;;;;;;;;;;;;;;;16.97;74.39;98800.20;1747905;82;20174;-86
2021/08/13 05:37:46;;;;;;;;;;;;;;;16.93;74.47;98804.94;1748341;82;25041;-87
2021/08/13 05:40:12;;;;;;;;;;;;;;;16.93;74.57;98810.23;1746171;81;22623;-86
2021/08/13 05:42:38;;;;;;;;;;;;;;;17.00;74.71;98811.36;1744070;81;26061;-85
2021/08/13 05:45:05;;;;;;;;;;;;;;;17.02;74.80;98812.03;1747990;81;24420;-86
2021/08/13 05:47:33;;;;;;;;;;;;;;;17.08;74.91;98825.19;1747837;81;20318;-86
2021/08/13 05:49:59;;;;;;;;;;;;;;;17.15;74.98;98822.34;1748517;80;24981;-86
2021/08/13 05:52:25;;;;;;;;;;;;;;;17.31;75.01;98827.92;1740169;81;20307;-85
2021/08/13 05:54:50;;;;;;;;;;;;;;;17.53;75.13;98821.49;1741376;81;26019;-85
2021/08/13 05:57:16;;;;;;;;;;;;;;;17.75;75.16;98819.89;1747192;81;20715;-85
2021/08/13 05:59:42;;;;;;;;;;;;;;;17.82;75.16;98816.19;1747413;81;20582;-85
2021/08/13 06:02:08;;;;;;;;;;;;;;;17.84;75.10;98821.67;1739892;81;25044;-85
2021/08/13 06:04:35;;;;;;;;;;;;;;;17.89;75.14;98820.75;1742576;81;22043;-85
2021/08/13 06:07:01;;;;;;;;;;;;;;;18.04;75.19;98822.95;1743770;80;26572;-85
2021/08/13 06:09:27;;;;;;;;;;;;;;;18.25;75.25;98818.27;1740399;81;24538;-85
2021/08/13 06:11:54;;;;;;;;;;;;;;;18.36;75.23;98816.75;1744848;81;20806;-86
2021/08/13 06:14:20;;;;;;;;;;;;;;;18.40;75.21;98818.13;1747725;81;25057;-85
2021/08/13 06:16:46;;;;;;;;;;;;;;;18.43;75.20;98812.55;1743712;81;22309;-85
2021/08/13 06:19:12;;;;;;;;;;;;;;;18.51;75.15;98820.58;1746019;81;21118;-85
2021/08/13 06:21:38;;;;;;;;;;;;;;;18.55;75.09;98821.97;1745903;81;24603;-86
2021/08/13 06:24:04;;;;;;;;;;;;;;;18.64;75.07;98819.78;1748767;80;20299;-86
2021/08/13 06:26:30;;;;;;;;;;;;;;;18.78;75.05;98817.94;1740166;81;25203;-86
2021/08/13 06:28:56;;;;;;;;;;;;;;;18.99;75.06;98811.51;1747741;81;20375;-86
2021/08/13 06:31:22;;;;;;;;;;;;;;;19.08;75.00;98807.97;1750178;81;21058;-85
2021/08/13 06:33:49;;;;;;;;;;;;;;;19.19;74.91;98815.21;1738596;80;24391;-87
2021/08/13 06:36:15;;;;;;;;;;;;;;;19.27;74.81;98814.43;1742410;80;20209;-87
2021/08/13 06:38:42;;;;;;;;;;;;;;;19.37;74.75;98809.03;1749225;81;24926;-87
2021/08/13 06:41:08;;;;;;;;;;;;;;;19.42;74.71;98815.55;1751070;81;22143;-87
2021/08/13 06:43:34;;;;;;;;;;;;;;;19.55;74.69;98811.21;1752713;81;26059;-86
2021/08/13 06:46:00;;;;;;;;;;;;;;;19.70;74.62;98812.31;1753154;81;24445;-88
2021/08/13 06:48:29;;;;;;;;;;;;;;;19.78;74.51;98816.86;1751030;81;20290;-87
2021/08/13 06:50:55;;;;;;;;;;;;;;;19.84;74.44;98812.25;1754620;80;25023;-87
2021/08/13 06:53:21;;;;;;;;;;;;;;;19.93;74.38;98812.63;1751937;81;22186;-87
2021/08/13 06:55:47;;;;;;;;;;;;;;;19.98;74.35;98812.50;1748835;81;21007;-88
2021/08/13 06:58:13;;;;;;;;;;;;;;;20.04;74.33;98818.52;1752638;81;20328;-88
2021/08/13 07:00:39;;;;;;;;;;;;;;;20.12;74.36;98822.22;1755229;81;20481;-87
2021/08/13 07:03:05;;;;;;;;;;;;;;;20.11;74.26;98823.20;1754387;81;20313;-88
2021/08/13 07:05:37;;;;;;;;;;;;;;;20.09;74.13;98826.02;1755435;81;21950;-87
2021/08/13 07:08:08;;;;;;;;;;;;;;;20.19;74.10;98821.91;1753188;81;25980;-87
2021/08/13 07:10:34;;;;;;;;;;;;;;;20.32;74.10;98821.85;1754986;81;24404;-87
2021/08/13 07:13:00;;;;;;;;;;;;;;;20.43;74.09;98830.05;1751555;81;20231;-87
2021/08/13 07:15:26;;;;;;;;;;;;;;;20.50;74.02;98830.24;1754640;81;20229;-88
2021/08/13 07:17:53;;;;;;;;;;;;;;;20.59;73.97;98827.94;1755444;81;22051;-88
2021/08/13 07:20:19;;;;;;;;;;;;;;;20.70;73.94;98832.47;1754671;81;26046;-88
2021/08/13 07:22:45;;;;;;;;;;;;;;;20.79;73.84;98830.16;1754094;81;24439;-87
2021/08/13 07:25:17;;;;;;;;;;;;;;;20.86;73.72;98828.53;1754920;81;20221;-88
2021/08/13 07:27:44;;;;;;;;;;;;;;;20.96;73.58;98828.88;1755127;81;24976;-88
2021/08/13 07:30:12;;;;;;;;;;;;;;;21.08;73.58;98827.08;1754556;81;22086;-88
2021/08/13 07:32:40;;;;;;;;;;;;;;;21.20;73.61;98827.13;1726254;81;20944;-88
2021/08/13 07:35:06;;;;;;;;;;;;;;;21.31;73.58;98829.97;1754591;81;20269;-88
2021/08/13 07:37:32;;;;;;;;;;;;;;;21.42;73.52;98827.48;1750898;81;20496;-88
2021/08/13 07:39:58;;;;;;;;;;;;;;;21.55;73.49;98827.30;1754580;81;20283;-88
2021/08/13 07:42:34;;;;;;;;;;;;;;;21.66;73.47;98822.97;1744683;81;22508;-88
2021/08/13 07:45:00;;;;;;;;;;;;;;;21.79;73.39;98829.63;1745516;81;26189;-88
2021/08/13 07:47:26;;;;;;;;;;;;;;;21.89;73.34;98836.44;1744523;81;24492;-88
2021/08/13 07:49:52;;;;;;;;;;;;;;;21.91;73.18;98830.45;1742510;81;20518;-88
2021/08/13 07:52:18;;;;;;;;;;;;;;;21.93;73.04;98824.42;1744101;81;20222;-88
2021/08/13 07:54:44;;;;;;;;;;;;;;;21.97;72.90;98832.97;1747196;81;22033;-88
2021/08/13 07:57:17;;;;;;;;;;;;;;;21.97;72.67;98829.80;1751387;81;25963;-88
2021/08/13 07:59:45;;;;;;;;;;;;;;;22.00;72.45;98834.78;1739508;81;24619;-88
2021/08/13 08:02:11;;;;;;;;;;;;;;;22.07;72.30;98828.28;1745851;81;20616;-88
2021/08/13 08:04:37;;;;;;;;;;;;;;;22.20;72.28;98829.09;1746762;81;25064;-86
2021/08/13 08:07:03;;;;;;;;;;;;;;;22.34;72.19;98832.36;1746188;81;20821;-88
2021/08/13 08:09:29;;;;;;;;;;;;;;;22.42;72.04;98835.82;1747521;80;26035;-88
2021/08/13 08:12:03;;;;;;;;;;;;;;;22.52;71.88;98837.81;1751626;81;24424;-88
2021/08/13 08:14:29;;;;;;;;;;;;;;;22.70;71.82;98841.55;1747353;81;20276;-88
2021/08/13 08:16:55;;;;;;;;;;;;;;;22.86;71.78;98843.33;1747382;81;20738;-88
2021/08/13 08:19:28;;;;;;;;;;;;;;;22.95;71.63;98840.96;1747862;81;22045;-88
2021/08/13 08:21:54;;;;;;;;;;;;;;;23.06;71.48;98840.56;1746454;81;26038;-88
2021/08/13 08:24:20;;;;;;;;;;;;;;;23.17;71.26;98833.48;1749492;81;20283;-88
2021/08/13 08:26:46;;;;;;;;;;;;;;;23.28;71.10;98835.75;1751289;81;20742;-88
2021/08/13 08:29:13;;;;;;;;;;;;;;;23.46;70.88;98835.95;1749502;81;24945;-88
2021/08/13 08:31:40;;;;;;;;;;;;;;;23.64;70.49;98833.31;1748229;81;22640;-88
2021/08/13 08:34:09;;;;;;;;;;;;;;;23.84;70.23;98828.81;1741510;81;26174;-88
2021/08/13 08:36:35;;;;;;;;;;;;;;;24.00;69.96;98839.34;1748431;81;24518;-88
2021/08/13 08:39:02;;;;;;;;;;;;;;;24.15;69.73;98843.69;1743465;81;20236;-88
2021/08/13 08:41:30;;;;;;;;;;;;;;;24.31;69.55;98844.55;1741684;81;25171;-88
2021/08/13 08:43:56;;;;;;;;;;;;;;;24.41;69.29;98843.26;1740634;82;20358;-88
2021/08/13 08:46:24;;;;;;;;;;;;;;;24.46;68.91;98846.20;1741990;82;26927;-88
2021/08/13 08:48:54;;;;;;;;;;;;;;;24.52;68.48;98846.80;1744374;82;25064;-88
2021/08/13 08:51:24;;;;;;;;;;;;;;;24.57;68.12;98844.91;1740288;82;20154;-86
2021/08/13 08:53:52;;;;;;;;;;;;;;;24.56;67.65;98844.07;1744385;81;25036;-86
2021/08/13 08:56:18;;;;;;;;;;;;;;;24.57;67.42;98840.39;1741616;82;22159;-86
2021/08/13 08:58:45;;;;;;;;;;;;;;;24.60;67.22;98845.35;1741288;82;25897;-86
2021/08/13 09:01:14;;;;;;;;;;;;;;;24.67;67.02;98845.95;1740820;80;24506;-85
2021/08/13 09:03:46;;;;;;;;;;;;;;;24.71;66.68;98849.40;1739985;80;20507;-85
2021/08/13 09:06:14;;;;;;;;;;;;;;;24.76;66.24;98855.56;1740856;80;24963;-85
2021/08/13 09:08:42;;;;;;;;;;;;;;;24.82;65.91;98850.80;1740244;81;21941;-85
2021/08/13 09:11:09;;;;;;;;;;;;;;;24.85;65.62;98851.23;1741554;80;25945;-85
2021/08/13 09:13:37;;;;;;;;;;;;;;;24.88;65.40;98850.05;1737013;80;24506;-86
2021/08/13 09:16:15;;;;;;;;;;;;;;;25.03;65.31;98858.07;1736527;81;20208;-86
2021/08/13 09:18:43;;;;;;;;;;;;;;;25.20;65.14;98865.66;1739851;81;25147;-86
2021/08/13 09:21:11;;;;;;;;;;;;;;;25.25;64.62;98867.30;1742344;82;22006;-86
2021/08/13 09:23:39;;;;;;;;;;;;;;;25.30;64.26;98864.87;1743254;81;25990;-85
2021/08/13 09:26:09;;;;;;;;;;;;;;;25.38;64.00;98869.26;1738689;81;24497;-85
2021/08/13 09:28:46;;;;;;;;;;;;;;;25.38;63.74;98867.41;1740589;81;20159;-86
2021/08/13 09:31:15;;;;;;;;;;;;;;;25.37;63.46;98868.42;1735190;82;25634;-86
2021/08/13 09:33:45;;;;;;;;;;;;;;;25.43;63.22;98870.34;1742987;82;21976;-85
2021/08/13 09:36:11;;;;;;;;;;;;;;;25.48;62.93;98865.75;1760305;81;26080;-85
2021/08/13 09:38:38;;;;;;;;;;;;;;;25.53;62.68;98861.17;1759130;81;23834;-86
2021/08/13 09:41:05;;;;;;;;;;;;;;;25.57;62.32;98863.81;1738081;81;20663;-86
2021/08/13 09:43:31;;;;;;;;;;;;;;;25.61;61.87;98869.94;1728565;82;25772;-85
2021/08/13 09:46:06;;;;;;;;;;;;;;;25.69;61.60;98869.79;1761259;81;22369;-85
2021/08/13 09:48:32;;;;;;;;;;;;;;;25.77;61.41;98868.84;1761868;80;25965;-85
2021/08/13 09:50:59;;;;;;;;;;;;;;;25.81;61.14;98868.25;1770246;80;20858;-85
2021/08/13 09:53:25;;;;;;;;;;;;;;;25.81;60.90;98868.77;1736108;81;20392;-85
2021/08/13 09:55:51;;;;;;;;;;;;;;;25.81;60.63;98871.44;1731868;81;24930;-84
2021/08/13 09:58:24;;;;;;;;;;;;;;;25.76;60.47;98862.64;1737419;82;20794;-85
2021/08/13 10:00:51;;;;;;;;;;;;;;;25.68;60.09;98857.94;1731331;82;26038;-88
2021/08/13 10:03:17;;;;;;;;;;;;;;;25.60;59.84;98859.40;1758455;80;24424;-88
2021/08/13 10:05:45;;;;;;;;;;;;;;;25.57;59.46;98861.14;1762440;80;20218;-88
2021/08/13 10:08:14;;;;;;;;;;;;;;;25.58;59.16;98860.13;1759533;80;25097;-88
2021/08/13 10:10:41;;;;;;;;;;;;;;;25.63;59.11;98858.52;1748612;81;22238;-88
2021/08/13 10:13:11;;;;;;;;;;;;;;;25.71;59.22;98858.37;1746830;81;26066;-88
2021/08/13 10:15:39;;;;;;;;;;;;;;;25.79;59.40;98859.59;1750405;81;25522;-88
2021/08/13 10:18:07;;;;;;;;;;;;;;;25.90;59.05;98853.38;1750229;81;20237;-89
2021/08/13 10:20:35;;;;;;;;;;;;;;;25.96;58.71;98844.05;1753612;81;24953;-88
2021/08/13 10:23:01;;;;;;;;;;;;;;;25.99;58.59;98845.49;1742772;80;21287;-88
2021/08/13 10:25:30;;;;;;;;;;;;;;;26.03;58.31;98846.24;1739775;82;26023;-88
2021/08/13 10:27:56;;;;;;;;;;;;;;;26.05;58.21;98852.25;1739420;81;24403;-89
2021/08/13 10:30:23;;;;;;;;;;;;;;;26.02;57.98;98849.95;1739728;82;20479;-88
2021/08/13 10:32:51;;;;;;;;;;;;;;;26.05;57.86;98851.42;1741390;82;24950;-87
2021/08/13 10:35:17;;;;;;;;;;;;;;;26.07;57.85;98847.53;1738223;82;22221;-92
2021/08/13 10:37:44;;;;;;;;;;;;;;;26.04;57.77;98848.42;1729660;81;26054;-92
2021/08/13 10:40:11;;;;;;;;;;;;;;;26.03;57.53;98847.58;1740309;81;25091;-92
2021/08/13 10:42:53;;;;;;;;;;;;;;;26.16;57.51;98850.37;1733505;81;20221;-93
2021/08/13 10:45:21;;;;;;;;;;;;;;;26.30;57.27;98846.44;1751498;80;25061;-89
2021/08/13 10:48:06;;;;;;;;;;;;;;;26.32;56.94;98842.55;1750771;81;22125;-89
2021/08/13 10:50:36;;;;;;;;;;;;;;;26.29;56.66;98840.28;1750901;80;25953;-89
2021/08/13 10:56:00;;;;;;;;;;;;;;;26.31;56.28;98834.69;1749230;81;20264;-89
2021/08/13 10:58:45;;;;;;;;;;;;;;;26.29;56.26;98830.88;1752047;81;24953;-88
2021/08/13 11:01:16;;;;;;;;;;;;;;;26.27;56.18;98827.56;1721947;81;23047;-88
2021/08/13 11:03:43;;;;;;;;;;;;;;;26.27;56.02;98824.05;1750031;80;26046;-88
2021/08/13 11:06:10;;;;;;;;;;;;;;;26.29;55.99;98815.30;1752999;80;24383;-88
2021/08/13 11:08:47;;;;;;;;;;;;;;;26.21;55.56;98814.38;1748989;80;20278;-88
2021/08/13 11:11:17;;;;;;;;;;;;;;;26.18;55.27;98817.44;1748191;80;22102;-88
2021/08/13 11:13:45;;;;;;;;;;;;;;;26.17;54.87;98811.78;1720707;81;21937;-88
2021/08/13 11:16:29;;;;;;;;;;;;;;;26.17;54.62;98817.66;1753590;81;26257;-88
2021/08/13 11:18:56;;;;;;;;;;;;;;;26.19;54.35;98810.23;1754721;81;25344;-88
2021/08/13 11:21:41;;;;;;;;;;;;;;;26.31;54.18;98814.05;1755125;81;20350;-88
2021/08/13 11:24:08;;;;;;;;;;;;;;;26.44;54.09;98813.30;1754833;81;25076;-86
2021/08/13 11:26:54;;;;;;;;;;;;;;;26.45;53.84;98810.42;1753390;81;22872;-86
2021/08/13 11:29:39;;;;;;;;;;;;;;;26.40;53.56;98810.20;1756030;80;25949;-85
2021/08/13 11:32:10;;;;;;;;;;;;;;;26.40;53.58;98810.71;1752065;81;24494;-86
2021/08/13 11:34:47;;;;;;;;;;;;;;;26.39;53.26;98805.85;1732926;82;20283;-85
2021/08/13 11:37:32;;;;;;;;;;;;;;;26.43;53.13;98800.39;1753606;81;24998;-85
2021/08/13 11:40:00;;;;;;;;;;;;;;;26.52;53.04;98804.55;1751510;81;22011;-85
2021/08/13 11:42:33;;;;;;;;;;;;;;;26.70;52.94;98806.70;1744648;81;26068;-85
2021/08/13 11:45:00;;;;;;;;;;;;;;;26.73;52.71;98801.45;1738906;82;24671;-85
2021/08/13 11:47:33;;;;;;;;;;;;;;;26.65;52.37;98803.80;1743411;82;20204;-85
2021/08/13 11:49:59;;;;;;;;;;;;;;;26.62;52.13;98799.64;1736629;82;24988;-85
2021/08/13 11:52:28;;;;;;;;;;;;;;;26.77;52.18;98800.84;1741159;82;21951;-85
2021/08/13 11:54:57;;;;;;;;;;;;;;;26.92;52.07;98801.55;1716239;82;22021;-85
2021/08/13 11:57:23;;;;;;;;;;;;;;;27.08;52.10;98800.34;1735028;81;24729;-85
2021/08/13 11:59:50;;;;;;;;;;;;;;;27.22;52.08;98795.83;1738799;81;20345;-87
2021/08/13 12:02:34;;;;;;;;;;;;;;;27.30;52.00;98795.63;1739483;81;25026;-86
2021/08/13 12:05:08;;;;;;;;;;;;;;;27.31;51.67;98795.42;1738982;81;22098;-87
2021/08/13 12:07:34;;;;;;;;;;;;;;;27.35;51.54;98791.28;1741318;81;26074;-86
2021/08/13 12:10:10;;;;;;;;;;;;;;;27.35;51.32;98790.45;1740600;81;24605;-85
2021/08/13 12:12:36;;;;;;;;;;;;;;;27.40;51.29;98789.31;1737252;81;20585;-87
2021/08/13 12:15:02;;;;;;;;;;;;;;;27.43;51.09;98788.92;1741480;82;24989;-86
2021/08/13 12:17:30;;;;;;;;;;;;;;;27.36;50.79;98784.88;1713341;82;20269;-86
2021/08/13 12:19:57;;;;;;;;;;;;;;;27.36;50.66;98780.84;1738475;82;21854;-86
2021/08/13 12:22:32;;;;;;;;;;;;;;;27.48;50.77;98779.72;1741248;81;25116;-86
2021/08/13 12:24:58;;;;;;;;;;;;;;;27.50;50.65;98777.66;1743313;82;20217;-86
2021/08/13 12:27:28;;;;;;;;;;;;;;;27.58;50.64;98769.41;1743313;82;24917;-87
2021/08/13 12:29:54;;;;;;;;;;;;;;;27.68;50.67;98774.36;1741312;82;21932;-86
2021/08/13 12:32:23;;;;;;;;;;;;;;;27.70;50.44;98770.44;1740347;82;26814;-86
2021/08/13 12:34:51;;;;;;;;;;;;;;;27.66;50.09;98773.72;1736956;82;24445;-86
2021/08/13 12:37:19;;;;;;;;;;;;;;;27.57;49.85;98772.30;1740670;82;20582;-85
2021/08/13 12:39:45;;;;;;;;;;;;;;;27.53;49.74;98770.55;1738787;81;25108;-85
2021/08/13 12:42:13;;;;;;;;;;;;;;;27.56;49.69;98766.08;1743681;82;21977;-87
2021/08/13 12:44:44;;;;;;;;;;;;;;;27.64;49.70;98761.86;1741902;82;26020;-89
2021/08/13 12:47:11;;;;;;;;;;;;;;;27.67;49.57;98763.28;1742142;82;24524;-88
2021/08/13 12:49:38;;;;;;;;;;;;;;;27.76;49.60;98762.88;1743206;81;20519;-88
2021/08/13 12:52:12;;;;;;;;;;;;;;;27.88;49.80;98763.05;1742665;82;24937;-87
2021/08/13 12:54:40;;;;;;;;;;;;;;;27.99;49.97;98760.23;1714244;82;22146;-86
2021/08/13 12:57:11;;;;;;;;;;;;;;;28.11;50.21;98755.86;1740404;82;26116;-87